Time;durP1;ratioP1;P1;durP2;ratioP2;P2;SDS_P1;SDS_P2;PMS_P1;PMS_P2;Temp;Humidity;BMP_temperature;BMP_pressure;BME280_temperature;BME280_humidity;BME280_pressure;Samples;Min_cycle;Max_cycle;Signal;HPM_P1;HPM_P2
2022/12/16 00:01:23;;;;;;;65.65;30.17;;;;;;;;;;5017708;28;20474;-79
2022/12/16 00:03:50;;;;;;;59.25;29.10;;;;;;;;;;5018640;28;20026;-79
2022/12/16 00:06:16;;;;;;;60.58;30.35;;;;;;;;;;5016080;28;20030;-78
2022/12/16 00:08:42;;;;;;;65.88;29.33;;;;;;;;;;5017347;28;20030;-80
2022/12/16 00:11:08;;;;;;;54.50;27.88;;;;;;;;;;5018336;28;20096;-79
2022/12/16 00:13:36;;;;;;;63.50;29.98;;;;;;;;;;5017710;28;20029;-79
2022/12/16 00:16:05;;;;;;;64.28;28.23;;;;;;;;;;5016940;28;20084;-81
2022/12/16 00:18:31;;;;;;;66.60;28.50;;;;;;;;;;5017978;28;20304;-79
2022/12/16 00:20:57;;;;;;;61.42;29.08;;;;;;;;;;5020772;28;20380;-78
2022/12/16 00:23:23;;;;;;;60.40;30.42;;;;;;;;;;5021294;28;20026;-78
2022/12/16 00:25:49;;;;;;;61.67;29.92;;;;;;;;;;5058925;23;20054;-79
2022/12/16 00:28:16;;;;;;;56.90;28.55;;;;;;;;;;5044494;28;20022;-78
2022/12/16 00:30:42;;;;;;;57.42;28.83;;;;;;;;;;5042323;28;20029;-78
2022/12/16 00:33:08;;;;;;;61.30;29.17;;;;;;;;;;5039167;28;20432;-77
2022/12/16 00:35:34;;;;;;;58.20;28.63;;;;;;;;;;5039601;28;20021;-77
2022/12/16 00:38:00;;;;;;;62.88;30.75;;;;;;;;;;5039620;28;20451;-77
2022/12/16 00:40:26;;;;;;;57.95;30.48;;;;;;;;;;5040134;28;20026;-78
2022/12/16 00:42:52;;;;;;;60.05;29.42;;;;;;;;;;5041148;28;20031;-79
2022/12/16 00:45:19;;;;;;;68.68;30.90;;;;;;;;;;5043523;28;20047;-79
2022/12/16 00:47:49;;;;;;;55.60;27.85;;;;;;;;;;5043981;28;20028;-79
2022/12/16 00:50:15;;;;;;;68.30;29.83;;;;;;;;;;5040071;28;20063;-78
2022/12/16 00:52:41;;;;;;;62.75;29.35;;;;;;;;;;5041769;28;20030;-79
2022/12/16 00:55:07;;;;;;;64.47;30.05;;;;;;;;;;5040822;28;20021;-78
2022/12/16 00:57:34;;;;;;;58.05;28.92;;;;;;;;;;5041360;28;20032;-77
2022/12/16 01:00:00;;;;;;;57.72;29.77;;;;;;;;;;5048607;28;20021;-78
2022/12/16 01:02:26;;;;;;;57.13;30.15;;;;;;;;;;5044838;28;20081;-78
2022/12/16 01:04:52;;;;;;;59.00;29.65;;;;;;;;;;5058953;28;20102;-79
2022/12/16 01:07:18;;;;;;;63.47;29.60;;;;;;;;;;5046231;28;20035;-78
2022/12/16 01:09:44;;;;;;;57.03;29.73;;;;;;;;;;5041810;28;20081;-77
2022/12/16 01:12:10;;;;;;;63.38;30.45;;;;;;;;;;5044093;28;20051;-79
2022/12/16 01:14:36;;;;;;;59.88;30.77;;;;;;;;;;5058982;28;20052;-78
2022/12/16 01:17:02;;;;;;;63.45;30.20;;;;;;;;;;5059011;28;20013;-77
2022/12/16 01:19:28;;;;;;;62.38;30.58;;;;;;;;;;5059254;28;20021;-78
2022/12/16 01:21:54;;;;;;;58.88;29.58;;;;;;;;;;5059087;28;20036;-78
2022/12/16 01:24:20;;;;;;;61.72;30.55;;;;;;;;;;5046221;28;20147;-78
2022/12/16 01:26:46;;;;;;;63.25;29.27;;;;;;;;;;5037919;28;20151;-79
2022/12/16 01:29:12;;;;;;;67.20;30.70;;;;;;;;;;5040058;28;20029;-78
2022/12/16 01:31:38;;;;;;;62.50;30.95;;;;;;;;;;5039279;28;20104;-79
2022/12/16 01:34:04;;;;;;;62.88;31.58;;;;;;;;;;5037374;28;20033;-79
2022/12/16 01:36:30;;;;;;;61.13;31.33;;;;;;;;;;5036342;28;20053;-78
2022/12/16 01:38:55;;;;;;;61.70;31.17;;;;;;;;;;5041472;28;20429;-78
2022/12/16 01:41:22;;;;;;;56.38;30.30;;;;;;;;;;5040334;28;20056;-78
2022/12/16 01:43:48;;;;;;;69.90;30.58;;;;;;;;;;5040029;28;20026;-76
2022/12/16 01:46:14;;;;;;;64.80;31.58;;;;;;;;;;5040869;28;20022;-79
2022/12/16 01:48:42;;;;;;;67.57;31.00;;;;;;;;;;5040054;28;20529;-78
2022/12/16 01:51:22;;;;;;;65.28;32.05;;;;;;;;;;5040708;28;20025;-78
2022/12/16 01:53:50;;;;;;;70.78;31.98;;;;;;;;;;5046131;28;20029;-78
2022/12/16 01:56:17;;;;;;;68.03;32.88;;;;;;;;;;5048319;28;20097;-76
2022/12/16 01:58:43;;;;;;;62.50;31.55;;;;;;;;;;5045869;28;20049;-78
2022/12/16 02:01:09;;;;;;;73.55;33.33;;;;;;;;;;5045373;28;20087;-77
2022/12/16 02:03:36;;;;;;;67.20;31.83;;;;;;;;;;5046366;28;20037;-78
2022/12/16 02:06:03;;;;;;;67.28;32.38;;;;;;;;;;5049785;28;20101;-77
2022/12/16 02:08:29;;;;;;;68.00;32.97;;;;;;;;;;5045050;28;20048;-78
2022/12/16 02:11:14;;;;;;;63.95;32.72;;;;;;;;;;5036040;28;20056;-78
2022/12/16 02:13:52;;;;;;;68.30;33.72;;;;;;;;;;5034376;28;20048;-77
2022/12/16 02:16:21;;;;;;;65.95;32.35;;;;;;;;;;5035015;28;20323;-78
2022/12/16 02:19:06;;;;;;;63.13;32.92;;;;;;;;;;5034799;28;20116;-77
2022/12/16 02:21:40;;;;;;;77.00;33.85;;;;;;;;;;5034690;28;20363;-77
2022/12/16 02:24:23;;;;;;;61.60;31.67;;;;;;;;;;5035988;28;20044;-78
2022/12/16 02:26:49;;;;;;;66.25;33.35;;;;;;;;;;5035528;28;20025;-77
2022/12/16 02:29:33;;;;;;;74.72;33.38;;;;;;;;;;5033873;28;20447;-78
2022/12/16 02:32:19;;;;;;;66.53;33.03;;;;;;;;;;5035337;28;20474;-77
2022/12/16 02:34:48;;;;;;;66.32;33.63;;;;;;;;;;5035282;28;20485;-77
2022/12/16 02:37:20;;;;;;;71.40;32.40;;;;;;;;;;5034712;28;20549;-77
2022/12/16 02:39:50;;;;;;;66.47;32.63;;;;;;;;;;5035395;28;20025;-77
2022/12/16 02:42:18;;;;;;;75.88;34.55;;;;;;;;;;5035350;28;20451;-77
2022/12/16 02:44:51;;;;;;;70.38;33.33;;;;;;;;;;5041793;28;20025;-78
2022/12/16 02:47:17;;;;;;;69.10;32.00;;;;;;;;;;5044061;28;20079;-77
2022/12/16 02:49:45;;;;;;;66.07;32.90;;;;;;;;;;5041441;28;20033;-78
2022/12/16 02:52:12;;;;;;;70.35;33.75;;;;;;;;;;5039805;28;20030;-77
2022/12/16 02:54:38;;;;;;;69.25;34.13;;;;;;;;;;5034334;28;20030;-77
2022/12/16 02:57:07;;;;;;;65.45;33.10;;;;;;;;;;5035527;28;20018;-78
2022/12/16 02:59:33;;;;;;;69.25;33.40;;;;;;;;;;5032760;28;20470;-78
2022/12/16 03:02:22;;;;;;;65.68;32.25;;;;;;;;;;5037337;28;20059;-78
2022/12/16 03:04:54;;;;;;;64.65;32.35;;;;;;;;;;5035337;28;20038;-78
2022/12/16 03:07:22;;;;;;;71.18;32.40;;;;;;;;;;5037637;28;20538;-76
2022/12/16 03:09:48;;;;;;;70.15;33.20;;;;;;;;;;5034134;28;20032;-78
2022/12/16 03:12:17;;;;;;;67.32;32.08;;;;;;;;;;5035054;28;20028;-78
2022/12/16 03:14:44;;;;;;;65.70;32.75;;;;;;;;;;5034746;28;20045;-76
2022/12/16 03:17:11;;;;;;;66.15;33.85;;;;;;;;;;5034857;28;20032;-78
2022/12/16 03:19:38;;;;;;;62.47;31.55;;;;;;;;;;5035338;28;20025;-77
2022/12/16 03:22:07;;;;;;;64.65;33.15;;;;;;;;;;5035103;28;20083;-77
2022/12/16 03:24:33;;;;;;;70.53;33.30;;;;;;;;;;5033973;28;20516;-78
2022/12/16 03:27:03;;;;;;;68.78;32.05;;;;;;;;;;5036249;28;20034;-78
2022/12/16 03:29:40;;;;;;;63.15;31.50;;;;;;;;;;5036225;28;20060;-77
2022/12/16 03:32:14;;;;;;;62.85;30.67;;;;;;;;;;5036935;28;20033;-78
2022/12/16 03:34:40;;;;;;;62.07;31.07;;;;;;;;;;5040862;28;20040;-78
2022/12/16 03:37:08;;;;;;;63.88;30.45;;;;;;;;;;5037739;28;20217;-77
2022/12/16 03:39:35;;;;;;;70.28;34.00;;;;;;;;;;5040125;28;20032;-78
2022/12/16 03:42:02;;;;;;;60.90;31.60;;;;;;;;;;5040933;28;20047;-77
2022/12/16 03:44:29;;;;;;;63.17;31.50;;;;;;;;;;5038235;28;20511;-77
2022/12/16 03:46:55;;;;;;;69.90;33.13;;;;;;;;;;5037865;28;20076;-78
2022/12/16 03:49:22;;;;;;;61.55;32.08;;;;;;;;;;5035114;28;20486;-77
2022/12/16 03:51:48;;;;;;;67.93;33.67;;;;;;;;;;5036480;28;20034;-76
2022/12/16 03:54:14;;;;;;;62.97;32.72;;;;;;;;;;5036108;28;20425;-77
2022/12/16 03:56:40;;;;;;;63.92;31.67;;;;;;;;;;5037519;28;20049;-78
2022/12/16 03:59:06;;;;;;;66.20;32.83;;;;;;;;;;5037775;28;20021;-77
2022/12/16 04:01:32;;;;;;;64.25;32.05;;;;;;;;;;5040299;28;20025;-78
2022/12/16 04:03:58;;;;;;;67.90;33.63;;;;;;;;;;5043482;28;20344;-78
2022/12/16 04:06:24;;;;;;;65.55;33.08;;;;;;;;;;5050098;28;20017;-78
2022/12/16 04:08:50;;;;;;;73.65;34.13;;;;;;;;;;5043430;28;20040;-77
2022/12/16 04:25:16;;;;;;;72.88;35.58;;;;;;;;;;5044310;28;20061;-78
2022/12/16 04:27:48;;;;;;;73.15;36.22;;;;;;;;;;5046557;28;20044;-77
2022/12/16 04:30:17;;;;;;;76.53;35.72;;;;;;;;;;5042311;28;20025;-77
